sensor_id;sensor_type;location;lat;lon;timestamp;P1;durP1;ratioP1;P2;durP2;ratioP2
71125;SDS011;58785;55.566;38.058;2022-12-20T00:00:47;6.90;;;2.20;;
71125;SDS011;58785;55.566;38.058;2022-12-20T00:03:12;6.33;;;1.93;;
71125;SDS011;58785;55.566;38.058;2022-12-20T00:05:39;5.45;;;1.58;;
71125;SDS011;58785;55.566;38.058;2022-12-20T00:08:06;9.50;;;2.42;;
71125;SDS011;58785;55.566;38.058;2022-12-20T00:10:39;7.95;;;1.60;;
71125;SDS011;58785;55.566;38.058;2022-12-20T00:13:06;11.63;;;1.70;;
71125;SDS011;58785;55.566;38.058;2022-12-20T00:15:32;6.90;;;2.15;;
71125;SDS011;58785;55.566;38.058;2022-12-20T00:17:58;6.07;;;1.80;;
71125;SDS011;58785;55.566;38.058;2022-12-20T00:20:24;7.00;;;1.80;;
71125;SDS011;58785;55.566;38.058;2022-12-20T00:22:51;6.07;;;1.50;;
71125;SDS011;58785;55.566;38.058;2022-12-20T00:25:16;5.68;;;1.60;;
71125;SDS011;58785;55.566;38.058;2022-12-20T00:27:44;5.20;;;1.43;;
71125;SDS011;58785;55.566;38.058;2022-12-20T00:30:10;8.07;;;1.60;;
71125;SDS011;58785;55.566;38.058;2022-12-20T00:32:35;7.65;;;2.10;;
71125;SDS011;58785;55.566;38.058;2022-12-20T00:35:01;5.33;;;1.50;;
71125;SDS011;58785;55.566;38.058;2022-12-20T00:37:28;10.80;;;1.95;;
71125;SDS011;58785;55.566;38.058;2022-12-20T00:39:54;6.10;;;1.20;;
71125;SDS011;58785;55.566;38.058;2022-12-20T00:42:19;7.30;;;2.23;;
71125;SDS011;58785;55.566;38.058;2022-12-20T00:44:45;6.05;;;1.55;;
71125;SDS011;58785;55.566;38.058;2022-12-20T00:47:10;8.13;;;1.30;;
71125;SDS011;58785;55.566;38.058;2022-12-20T00:49:36;7.30;;;1.33;;
71125;SDS011;58785;55.566;38.058;2022-12-20T00:52:01;7.63;;;1.38;;
71125;SDS011;58785;55.566;38.058;2022-12-20T00:54:27;6.67;;;1.27;;
71125;SDS011;58785;55.566;38.058;2022-12-20T00:56:52;7.93;;;1.50;;
71125;SDS011;58785;55.566;38.058;2022-12-20T00:59:18;7.80;;;2.03;;
71125;SDS011;58785;55.566;38.058;2022-12-20T01:01:45;7.45;;;1.83;;
71125;SDS011;58785;55.566;38.058;2022-12-20T01:04:11;8.43;;;1.70;;
71125;SDS011;58785;55.566;38.058;2022-12-20T01:06:37;5.80;;;1.60;;
71125;SDS011;58785;55.566;38.058;2022-12-20T01:09:03;6.65;;;2.20;;
71125;SDS011;58785;55.566;38.058;2022-12-20T01:11:34;5.95;;;1.30;;
71125;SDS011;58785;55.566;38.058;2022-12-20T01:14:02;5.13;;;1.50;;
71125;SDS011;58785;55.566;38.058;2022-12-20T01:16:35;5.93;;;1.63;;
71125;SDS011;58785;55.566;38.058;2022-12-20T01:19:03;6.15;;;1.92;;
71125;SDS011;58785;55.566;38.058;2022-12-20T01:21:30;5.80;;;1.38;;
71125;SDS011;58785;55.566;38.058;2022-12-20T01:23:55;7.10;;;1.70;;
71125;SDS011;58785;55.566;38.058;2022-12-20T01:26:22;5.78;;;1.73;;
71125;SDS011;58785;55.566;38.058;2022-12-20T01:28:51;6.43;;;1.30;;
71125;SDS011;58785;55.566;38.058;2022-12-20T01:31:19;5.82;;;1.45;;
71125;SDS011;58785;55.566;38.058;2022-12-20T01:33:46;8.90;;;1.63;;
71125;SDS011;58785;55.566;38.058;2022-12-20T01:36:14;7.90;;;2.13;;
71125;SDS011;58785;55.566;38.058;2022-12-20T01:38:45;7.72;;;1.95;;
71125;SDS011;58785;55.566;38.058;2022-12-20T01:41:16;10.15;;;2.13;;
71125;SDS011;58785;55.566;38.058;2022-12-20T01:43:47;6.30;;;1.77;;
71125;SDS011;58785;55.566;38.058;2022-12-20T01:46:16;7.43;;;1.55;;
71125;SDS011;58785;55.566;38.058;2022-12-20T01:48:44;5.83;;;1.57;;
71125;SDS011;58785;55.566;38.058;2022-12-20T01:51:15;7.63;;;1.75;;
71125;SDS011;58785;55.566;38.058;2022-12-20T01:53:42;6.72;;;1.77;;
71125;SDS011;58785;55.566;38.058;2022-12-20T01:56:07;7.87;;;1.87;;
71125;SDS011;58785;55.566;38.058;2022-12-20T01:58:35;6.20;;;1.48;;
71125;SDS011;58785;55.566;38.058;2022-12-20T02:01:03;6.57;;;1.73;;
71125;SDS011;58785;55.566;38.058;2022-12-20T02:03:30;6.22;;;2.05;;
71125;SDS011;58785;55.566;38.058;2022-12-20T02:05:56;5.57;;;1.50;;
71125;SDS011;58785;55.566;38.058;2022-12-20T02:08:31;8.10;;;1.87;;
71125;SDS011;58785;55.566;38.058;2022-12-20T02:14:07;6.55;;;2.08;;
71125;SDS011;58785;55.566;38.058;2022-12-20T02:16:43;7.50;;;1.67;;
71125;SDS011;58785;55.566;38.058;2022-12-20T02:22:33;4.90;;;1.30;;
71125;SDS011;58785;55.566;38.058;2022-12-20T02:31:04;7.43;;;1.60;;
71125;SDS011;58785;55.566;38.058;2022-12-20T02:33:35;5.75;;;1.63;;
71125;SDS011;58785;55.566;38.058;2022-12-20T02:36:03;5.97;;;1.58;;
71125;SDS011;58785;55.566;38.058;2022-12-20T02:38:30;8.05;;;1.88;;
71125;SDS011;58785;55.566;38.058;2022-12-20T02:41:08;6.57;;;1.90;;
71125;SDS011;58785;55.566;38.058;2022-12-20T02:43:41;8.32;;;2.50;;
71125;SDS011;58785;55.566;38.058;2022-12-20T02:46:27;10.73;;;2.40;;
71125;SDS011;58785;55.566;38.058;2022-12-20T02:48:58;10.98;;;2.70;;
71125;SDS011;58785;55.566;38.058;2022-12-20T02:51:27;8.15;;;1.98;;
71125;SDS011;58785;55.566;38.058;2022-12-20T02:53:56;8.20;;;1.70;;
71125;SDS011;58785;55.566;38.058;2022-12-20T02:56:41;7.88;;;2.40;;
71125;SDS011;58785;55.566;38.058;2022-12-20T02:59:13;8.85;;;2.42;;
71125;SDS011;58785;55.566;38.058;2022-12-20T03:01:54;10.57;;;3.08;;
71125;SDS011;58785;55.566;38.058;2022-12-20T03:04:25;7.70;;;2.35;;
71125;SDS011;58785;55.566;38.058;2022-12-20T03:06:59;9.13;;;2.70;;
71125;SDS011;58785;55.566;38.058;2022-12-20T03:09:28;10.77;;;3.33;;
71125;SDS011;58785;55.566;38.058;2022-12-20T03:11:55;10.07;;;3.40;;
71125;SDS011;58785;55.566;38.058;2022-12-20T03:14:22;12.15;;;2.70;;
71125;SDS011;58785;55.566;38.058;2022-12-20T03:16:47;11.80;;;2.57;;
71125;SDS011;58785;55.566;38.058;2022-12-20T03:19:13;9.60;;;3.50;;
71125;SDS011;58785;55.566;38.058;2022-12-20T03:21:39;9.83;;;3.87;;
71125;SDS011;58785;55.566;38.058;2022-12-20T03:24:04;12.75;;;3.35;;
71125;SDS011;58785;55.566;38.058;2022-12-20T03:26:30;11.25;;;3.35;;
71125;SDS011;58785;55.566;38.058;2022-12-20T03:28:56;11.07;;;3.90;;
71125;SDS011;58785;55.566;38.058;2022-12-20T03:31:22;10.90;;;3.70;;
71125;SDS011;58785;55.566;38.058;2022-12-20T03:33:47;9.93;;;2.92;;
71125;SDS011;58785;55.566;38.058;2022-12-20T03:36:13;9.33;;;3.20;;
71125;SDS011;58785;55.566;38.058;2022-12-20T03:38:38;11.35;;;4.40;;
71125;SDS011;58785;55.566;38.058;2022-12-20T03:41:04;13.83;;;3.97;;
71125;SDS011;58785;55.566;38.058;2022-12-20T03:43:30;12.13;;;3.95;;
71125;SDS011;58785;55.566;38.058;2022-12-20T03:45:55;9.77;;;3.47;;
71125;SDS011;58785;55.566;38.058;2022-12-20T03:48:21;12.73;;;4.30;;
71125;SDS011;58785;55.566;38.058;2022-12-20T03:50:46;14.50;;;3.85;;
71125;SDS011;58785;55.566;38.058;2022-12-20T03:53:12;13.50;;;4.17;;
71125;SDS011;58785;55.566;38.058;2022-12-20T03:55:37;13.80;;;4.10;;
71125;SDS011;58785;55.566;38.058;2022-12-20T03:58:03;12.38;;;4.45;;
71125;SDS011;58785;55.566;38.058;2022-12-20T04:00:28;13.50;;;3.67;;
71125;SDS011;58785;55.566;38.058;2022-12-20T04:02:57;14.47;;;3.87;;
71125;SDS011;58785;55.566;38.058;2022-12-20T04:05:23;12.48;;;4.07;;
71125;SDS011;58785;55.566;38.058;2022-12-20T04:07:48;12.27;;;4.60;;
71125;SDS011;58785;55.566;38.058;2022-12-20T04:10:14;15.02;;;4.38;;
71125;SDS011;58785;55.566;38.058;2022-12-20T04:12:40;10.90;;;3.42;;
71125;SDS011;58785;55.566;38.058;2022-12-20T04:15:06;11.40;;;3.63;;
71125;SDS011;58785;55.566;38.058;2022-12-20T04:17:32;13.05;;;3.80;;
71125;SDS011;58785;55.566;38.058;2022-12-20T04:19:57;13.67;;;3.77;;
71125;SDS011;58785;55.566;38.058;2022-12-20T04:22:23;10.23;;;3.20;;
71125;SDS011;58785;55.566;38.058;2022-12-20T04:24:48;13.85;;;4.15;;
71125;SDS011;58785;55.566;38.058;2022-12-20T04:27:14;13.23;;;4.50;;
71125;SDS011;58785;55.566;38.058;2022-12-20T04:29:39;12.97;;;4.17;;
71125;SDS011;58785;55.566;38.058;2022-12-20T04:32:05;11.90;;;3.75;;
71125;SDS011;58785;55.566;38.058;2022-12-20T04:34:30;12.17;;;3.83;;
71125;SDS011;58785;55.566;38.058;2022-12-20T04:36:56;13.40;;;2.77;;
71125;SDS011;58785;55.566;38.058;2022-12-20T04:39:21;14.37;;;3.93;;
71125;SDS011;58785;55.566;38.058;2022-12-20T04:41:47;11.13;;;3.17;;
71125;SDS011;58785;55.566;38.058;2022-12-20T04:44:12;11.23;;;3.70;;
71125;SDS011;58785;55.566;38.058;2022-12-20T04:46:38;11.30;;;3.77;;
71125;SDS011;58785;55.566;38.058;2022-12-20T04:49:03;15.13;;;4.05;;
71125;SDS011;58785;55.566;38.058;2022-12-20T04:51:29;11.70;;;3.50;;
71125;SDS011;58785;55.566;38.058;2022-12-20T04:53:54;16.20;;;4.80;;
71125;SDS011;58785;55.566;38.058;2022-12-20T04:56:22;11.88;;;4.63;;
71125;SDS011;58785;55.566;38.058;2022-12-20T04:58:49;9.80;;;3.40;;
71125;SDS011;58785;55.566;38.058;2022-12-20T05:01:17;13.40;;;3.47;;
71125;SDS011;58785;55.566;38.058;2022-12-20T05:03:44;9.98;;;4.07;;
71125;SDS011;58785;55.566;38.058;2022-12-20T05:06:10;13.57;;;4.17;;
71125;SDS011;58785;55.566;38.058;2022-12-20T05:08:36;12.70;;;4.18;;
71125;SDS011;58785;55.566;38.058;2022-12-20T05:11:02;9.60;;;3.22;;
71125;SDS011;58785;55.566;38.058;2022-12-20T05:13:28;12.07;;;4.00;;
71125;SDS011;58785;55.566;38.058;2022-12-20T05:15:55;9.38;;;2.83;;
71125;SDS011;58785;55.566;38.058;2022-12-20T05:18:21;8.80;;;2.87;;
71125;SDS011;58785;55.566;38.058;2022-12-20T05:20:47;11.57;;;3.35;;
71125;SDS011;58785;55.566;38.058;2022-12-20T05:23:33;11.68;;;2.70;;
71125;SDS011;58785;55.566;38.058;2022-12-20T05:26:17;21.27;;;4.97;;
71125;SDS011;58785;55.566;38.058;2022-12-20T05:28:43;10.83;;;3.20;;
71125;SDS011;58785;55.566;38.058;2022-12-20T05:31:08;13.93;;;3.67;;
71125;SDS011;58785;55.566;38.058;2022-12-20T05:33:34;15.97;;;3.50;;
71125;SDS011;58785;55.566;38.058;2022-12-20T05:36:00;12.13;;;3.90;;
71125;SDS011;58785;55.566;38.058;2022-12-20T05:38:25;12.97;;;3.20;;
71125;SDS011;58785;55.566;38.058;2022-12-20T05:40:51;9.00;;;3.13;;
71125;SDS011;58785;55.566;38.058;2022-12-20T05:43:17;10.85;;;3.20;;
71125;SDS011;58785;55.566;38.058;2022-12-20T05:45:44;11.52;;;3.38;;
71125;SDS011;58785;55.566;38.058;2022-12-20T05:48:14;11.80;;;3.73;;
71125;SDS011;58785;55.566;38.058;2022-12-20T05:54:21;9.50;;;2.97;;
71125;SDS011;58785;55.566;38.058;2022-12-20T05:56:47;7.80;;;2.60;;
71125;SDS011;58785;55.566;38.058;2022-12-20T05:59:12;12.27;;;4.20;;
71125;SDS011;58785;55.566;38.058;2022-12-20T06:01:38;11.10;;;3.20;;
71125;SDS011;58785;55.566;38.058;2022-12-20T06:04:03;14.73;;;4.13;;
71125;SDS011;58785;55.566;38.058;2022-12-20T06:06:29;12.63;;;4.33;;
71125;SDS011;58785;55.566;38.058;2022-12-20T06:08:55;12.30;;;3.72;;
71125;SDS011;58785;55.566;38.058;2022-12-20T06:11:20;7.87;;;2.80;;
71125;SDS011;58785;55.566;38.058;2022-12-20T06:13:46;10.27;;;4.13;;
71125;SDS011;58785;55.566;38.058;2022-12-20T06:16:11;10.67;;;1.90;;
71125;SDS011;58785;55.566;38.058;2022-12-20T06:18:37;10.57;;;3.33;;
71125;SDS011;58785;55.566;38.058;2022-12-20T06:21:02;10.35;;;3.33;;
71125;SDS011;58785;55.566;38.058;2022-12-20T06:23:28;8.90;;;3.40;;
71125;SDS011;58785;55.566;38.058;2022-12-20T06:25:54;8.50;;;2.65;;
71125;SDS011;58785;55.566;38.058;2022-12-20T06:28:20;9.97;;;3.00;;
71125;SDS011;58785;55.566;38.058;2022-12-20T06:30:55;14.68;;;2.95;;
71125;SDS011;58785;55.566;38.058;2022-12-20T06:33:22;10.30;;;3.20;;
71125;SDS011;58785;55.566;38.058;2022-12-20T06:35:49;11.23;;;3.70;;
71125;SDS011;58785;55.566;38.058;2022-12-20T06:38:15;11.00;;;3.20;;
71125;SDS011;58785;55.566;38.058;2022-12-20T06:40:41;8.43;;;2.60;;
71125;SDS011;58785;55.566;38.058;2022-12-20T06:43:07;8.57;;;2.63;;
71125;SDS011;58785;55.566;38.058;2022-12-20T06:45:32;10.23;;;2.13;;
71125;SDS011;58785;55.566;38.058;2022-12-20T06:47:58;8.03;;;2.53;;
71125;SDS011;58785;55.566;38.058;2022-12-20T06:50:23;7.43;;;2.33;;
71125;SDS011;58785;55.566;38.058;2022-12-20T06:52:49;11.98;;;3.03;;
71125;SDS011;58785;55.566;38.058;2022-12-20T06:55:15;8.33;;;2.10;;
71125;SDS011;58785;55.566;38.058;2022-12-20T06:57:41;9.82;;;2.45;;
71125;SDS011;58785;55.566;38.058;2022-12-20T07:00:07;7.70;;;2.20;;
71125;SDS011;58785;55.566;38.058;2022-12-20T07:02:37;8.93;;;2.05;;
71125;SDS011;58785;55.566;38.058;2022-12-20T07:05:03;7.65;;;1.45;;
71125;SDS011;58785;55.566;38.058;2022-12-20T07:07:29;6.60;;;2.30;;
71125;SDS011;58785;55.566;38.058;2022-12-20T07:09:55;8.25;;;1.85;;
71125;SDS011;58785;55.566;38.058;2022-12-20T07:12:20;7.77;;;2.57;;
71125;SDS011;58785;55.566;38.058;2022-12-20T07:14:47;7.25;;;1.63;;
71125;SDS011;58785;55.566;38.058;2022-12-20T07:17:13;6.38;;;1.58;;
71125;SDS011;58785;55.566;38.058;2022-12-20T07:19:39;7.37;;;1.90;;
71125;SDS011;58785;55.566;38.058;2022-12-20T07:22:06;12.27;;;1.85;;
71125;SDS011;58785;55.566;38.058;2022-12-20T07:24:31;8.77;;;2.13;;
71125;SDS011;58785;55.566;38.058;2022-12-20T07:26:57;6.80;;;1.70;;
71125;SDS011;58785;55.566;38.058;2022-12-20T07:29:23;5.55;;;1.63;;
71125;SDS011;58785;55.566;38.058;2022-12-20T07:31:49;6.13;;;1.52;;
71125;SDS011;58785;55.566;38.058;2022-12-20T07:34:15;9.03;;;2.03;;
71125;SDS011;58785;55.566;38.058;2022-12-20T07:36:41;6.32;;;2.08;;
71125;SDS011;58785;55.566;38.058;2022-12-20T07:39:06;7.17;;;1.87;;
71125;SDS011;58785;55.566;38.058;2022-12-20T07:41:32;5.47;;;1.50;;
71125;SDS011;58785;55.566;38.058;2022-12-20T07:43:58;5.93;;;2.10;;
71125;SDS011;58785;55.566;38.058;2022-12-20T07:46:23;9.98;;;2.50;;
71125;SDS011;58785;55.566;38.058;2022-12-20T07:48:49;7.10;;;1.57;;
71125;SDS011;58785;55.566;38.058;2022-12-20T07:51:20;6.80;;;1.85;;
71125;SDS011;58785;55.566;38.058;2022-12-20T07:54:01;7.57;;;2.10;;
71125;SDS011;58785;55.566;38.058;2022-12-20T07:56:36;6.40;;;2.22;;
71125;SDS011;58785;55.566;38.058;2022-12-20T07:59:05;7.45;;;2.38;;
71125;SDS011;58785;55.566;38.058;2022-12-20T08:01:31;7.95;;;2.25;;
71125;SDS011;58785;55.566;38.058;2022-12-20T08:04:03;7.57;;;1.80;;
71125;SDS011;58785;55.566;38.058;2022-12-20T08:06:32;8.35;;;2.15;;
71125;SDS011;58785;55.566;38.058;2022-12-20T08:08:59;6.85;;;1.67;;
71125;SDS011;58785;55.566;38.058;2022-12-20T08:11:28;11.05;;;3.15;;
71125;SDS011;58785;55.566;38.058;2022-12-20T08:13:55;5.33;;;1.30;;
71125;SDS011;58785;55.566;38.058;2022-12-20T08:16:21;9.55;;;2.00;;
71125;SDS011;58785;55.566;38.058;2022-12-20T08:18:46;6.57;;;1.00;;
71125;SDS011;58785;55.566;38.058;2022-12-20T08:21:12;5.13;;;1.48;;
71125;SDS011;58785;55.566;38.058;2022-12-20T08:23:39;15.75;;;2.38;;
71125;SDS011;58785;55.566;38.058;2022-12-20T08:26:04;8.23;;;2.47;;
71125;SDS011;58785;55.566;38.058;2022-12-20T08:28:31;8.02;;;2.15;;
71125;SDS011;58785;55.566;38.058;2022-12-20T08:31:04;6.40;;;1.92;;
71125;SDS011;58785;55.566;38.058;2022-12-20T08:33:31;7.97;;;1.67;;
71125;SDS011;58785;55.566;38.058;2022-12-20T08:35:58;10.60;;;2.13;;
71125;SDS011;58785;55.566;38.058;2022-12-20T08:38:27;9.13;;;1.93;;
71125;SDS011;58785;55.566;38.058;2022-12-20T08:40:52;7.13;;;1.38;;
71125;SDS011;58785;55.566;38.058;2022-12-20T08:43:18;7.53;;;2.35;;
71125;SDS011;58785;55.566;38.058;2022-12-20T08:45:44;7.90;;;2.27;;
71125;SDS011;58785;55.566;38.058;2022-12-20T08:48:09;8.20;;;2.37;;
71125;SDS011;58785;55.566;38.058;2022-12-20T08:50:35;6.70;;;2.20;;
71125;SDS011;58785;55.566;38.058;2022-12-20T08:53:00;7.50;;;2.53;;
71125;SDS011;58785;55.566;38.058;2022-12-20T08:55:26;11.07;;;2.70;;
71125;SDS011;58785;55.566;38.058;2022-12-20T08:57:51;11.23;;;3.25;;
71125;SDS011;58785;55.566;38.058;2022-12-20T09:00:17;13.33;;;3.00;;
71125;SDS011;58785;55.566;38.058;2022-12-20T09:02:43;6.17;;;2.00;;
71125;SDS011;58785;55.566;38.058;2022-12-20T09:05:09;9.75;;;2.25;;
71125;SDS011;58785;55.566;38.058;2022-12-20T09:07:34;7.53;;;1.93;;
71125;SDS011;58785;55.566;38.058;2022-12-20T09:10:00;4.80;;;1.30;;
71125;SDS011;58785;55.566;38.058;2022-12-20T09:12:29;8.32;;;2.33;;
71125;SDS011;58785;55.566;38.058;2022-12-20T09:14:54;6.95;;;1.38;;
71125;SDS011;58785;55.566;38.058;2022-12-20T09:17:20;7.40;;;1.97;;
71125;SDS011;58785;55.566;38.058;2022-12-20T09:19:46;5.80;;;1.63;;
71125;SDS011;58785;55.566;38.058;2022-12-20T09:22:11;5.28;;;1.35;;
71125;SDS011;58785;55.566;38.058;2022-12-20T09:24:37;6.87;;;1.03;;
71125;SDS011;58785;55.566;38.058;2022-12-20T09:27:02;4.47;;;0.90;;
71125;SDS011;58785;55.566;38.058;2022-12-20T09:29:28;4.20;;;1.07;;
71125;SDS011;58785;55.566;38.058;2022-12-20T09:31:53;5.77;;;1.70;;
71125;SDS011;58785;55.566;38.058;2022-12-20T09:34:19;5.95;;;1.58;;
71125;SDS011;58785;55.566;38.058;2022-12-20T09:36:45;4.10;;;1.00;;
71125;SDS011;58785;55.566;38.058;2022-12-20T09:39:10;5.13;;;1.07;;
71125;SDS011;58785;55.566;38.058;2022-12-20T09:41:37;7.65;;;1.50;;
71125;SDS011;58785;55.566;38.058;2022-12-20T09:44:10;4.05;;;1.20;;
71125;SDS011;58785;55.566;38.058;2022-12-20T09:46:37;5.33;;;1.30;;
71125;SDS011;58785;55.566;38.058;2022-12-20T09:49:04;4.50;;;1.23;;
71125;SDS011;58785;55.566;38.058;2022-12-20T09:54:31;6.45;;;1.33;;
71125;SDS011;58785;55.566;38.058;2022-12-20T09:57:04;4.80;;;1.30;;
71125;SDS011;58785;55.566;38.058;2022-12-20T09:59:34;6.80;;;1.83;;
71125;SDS011;58785;55.566;38.058;2022-12-20T10:02:07;7.18;;;1.88;;
71125;SDS011;58785;55.566;38.058;2022-12-20T10:04:39;6.85;;;1.73;;
71125;SDS011;58785;55.566;38.058;2022-12-20T10:07:19;7.03;;;1.97;;
71125;SDS011;58785;55.566;38.058;2022-12-20T10:15:38;5.93;;;1.10;;
71125;SDS011;58785;55.566;38.058;2022-12-20T10:24:00;5.25;;;1.17;;
71125;SDS011;58785;55.566;38.058;2022-12-20T10:26:27;5.75;;;1.38;;
71125;SDS011;58785;55.566;38.058;2022-12-20T10:28:54;4.60;;;1.27;;
71125;SDS011;58785;55.566;38.058;2022-12-20T10:31:19;6.23;;;1.10;;
71125;SDS011;58785;55.566;38.058;2022-12-20T10:33:45;5.88;;;1.13;;
71125;SDS011;58785;55.566;38.058;2022-12-20T10:36:18;5.70;;;1.27;;
71125;SDS011;58785;55.566;38.058;2022-12-20T10:38:52;7.32;;;1.20;;
71125;SDS011;58785;55.566;38.058;2022-12-20T10:41:25;6.32;;;1.23;;
71125;SDS011;58785;55.566;38.058;2022-12-20T10:46:59;4.55;;;1.20;;
71125;SDS011;58785;55.566;38.058;2022-12-20T10:49:27;8.15;;;1.25;;
71125;SDS011;58785;55.566;38.058;2022-12-20T10:54:34;6.40;;;1.42;;
71125;SDS011;58785;55.566;38.058;2022-12-20T10:57:22;5.33;;;1.60;;
71125;SDS011;58785;55.566;38.058;2022-12-20T11:02:36;5.67;;;1.57;;
71125;SDS011;58785;55.566;38.058;2022-12-20T11:05:03;5.97;;;1.35;;
71125;SDS011;58785;55.566;38.058;2022-12-20T11:07:55;6.00;;;1.15;;
71125;SDS011;58785;55.566;38.058;2022-12-20T11:10:24;5.20;;;1.20;;
71125;SDS011;58785;55.566;38.058;2022-12-20T11:12:52;8.15;;;1.67;;
71125;SDS011;58785;55.566;38.058;2022-12-20T11:15:22;7.00;;;1.70;;
71125;SDS011;58785;55.566;38.058;2022-12-20T11:17:50;6.18;;;1.30;;
71125;SDS011;58785;55.566;38.058;2022-12-20T11:23:14;6.00;;;1.80;;
71125;SDS011;58785;55.566;38.058;2022-12-20T11:42:16;4.43;;;1.10;;
71125;SDS011;58785;55.566;38.058;2022-12-20T11:45:09;4.00;;;0.90;;
71125;SDS011;58785;55.566;38.058;2022-12-20T11:50:39;5.88;;;1.00;;
71125;SDS011;58785;55.566;38.058;2022-12-20T11:53:07;5.57;;;1.63;;
71125;SDS011;58785;55.566;38.058;2022-12-20T11:55:41;9.93;;;1.47;;
71125;SDS011;58785;55.566;38.058;2022-12-20T11:58:31;4.95;;;0.88;;
71125;SDS011;58785;55.566;38.058;2022-12-20T12:01:07;6.43;;;1.35;;
71125;SDS011;58785;55.566;38.058;2022-12-20T12:03:40;5.53;;;1.27;;
71125;SDS011;58785;55.566;38.058;2022-12-20T12:06:16;6.93;;;1.52;;
71125;SDS011;58785;55.566;38.058;2022-12-20T12:11:36;5.32;;;1.23;;
71125;SDS011;58785;55.566;38.058;2022-12-20T12:14:08;8.23;;;1.75;;
71125;SDS011;58785;55.566;38.058;2022-12-20T12:16:44;6.78;;;1.50;;
71125;SDS011;58785;55.566;38.058;2022-12-20T12:19:15;6.10;;;1.55;;
71125;SDS011;58785;55.566;38.058;2022-12-20T12:24:21;5.93;;;1.30;;
71125;SDS011;58785;55.566;38.058;2022-12-20T12:26:54;6.72;;;2.10;;
71125;SDS011;58785;55.566;38.058;2022-12-20T12:29:22;6.20;;;1.38;;
71125;SDS011;58785;55.566;38.058;2022-12-20T12:42:43;6.18;;;1.38;;
71125;SDS011;58785;55.566;38.058;2022-12-20T12:45:24;5.68;;;1.52;;
71125;SDS011;58785;55.566;38.058;2022-12-20T12:50:41;4.85;;;1.35;;
71125;SDS011;58785;55.566;38.058;2022-12-20T13:03:43;7.25;;;1.40;;
71125;SDS011;58785;55.566;38.058;2022-12-20T13:11:28;8.10;;;1.42;;
71125;SDS011;58785;55.566;38.058;2022-12-20T13:17:45;6.35;;;1.75;;
71125;SDS011;58785;55.566;38.058;2022-12-20T13:20:19;6.10;;;1.40;;
71125;SDS011;58785;55.566;38.058;2022-12-20T13:25:41;9.35;;;2.78;;
71125;SDS011;58785;55.566;38.058;2022-12-20T13:31:33;12.55;;;1.67;;
71125;SDS011;58785;55.566;38.058;2022-12-20T13:38:50;5.97;;;1.80;;
71125;SDS011;58785;55.566;38.058;2022-12-20T13:50:00;8.93;;;1.60;;
71125;SDS011;58785;55.566;38.058;2022-12-20T13:52:43;15.00;;;2.43;;
71125;SDS011;58785;55.566;38.058;2022-12-20T13:58:05;11.52;;;2.22;;
71125;SDS011;58785;55.566;38.058;2022-12-20T14:00:37;5.78;;;1.60;;
71125;SDS011;58785;55.566;38.058;2022-12-20T14:03:02;7.67;;;1.67;;
71125;SDS011;58785;55.566;38.058;2022-12-20T14:05:33;8.38;;;2.97;;
71125;SDS011;58785;55.566;38.058;2022-12-20T14:12:13;8.45;;;2.20;;
71125;SDS011;58785;55.566;38.058;2022-12-20T14:14:44;8.30;;;1.95;;
71125;SDS011;58785;55.566;38.058;2022-12-20T14:17:22;7.10;;;1.60;;
71125;SDS011;58785;55.566;38.058;2022-12-20T14:23:16;9.93;;;1.92;;
71125;SDS011;58785;55.566;38.058;2022-12-20T14:28:17;7.07;;;1.98;;
71125;SDS011;58785;55.566;38.058;2022-12-20T14:31:05;7.43;;;1.97;;
71125;SDS011;58785;55.566;38.058;2022-12-20T14:33:34;7.07;;;2.05;;
71125;SDS011;58785;55.566;38.058;2022-12-20T14:38:35;5.00;;;1.10;;
71125;SDS011;58785;55.566;38.058;2022-12-20T14:41:01;13.88;;;1.98;;
71125;SDS011;58785;55.566;38.058;2022-12-20T14:43:27;9.93;;;2.10;;
71125;SDS011;58785;55.566;38.058;2022-12-20T14:46:18;6.93;;;1.85;;
71125;SDS011;58785;55.566;38.058;2022-12-20T14:48:46;5.68;;;1.45;;
71125;SDS011;58785;55.566;38.058;2022-12-20T14:51:17;8.23;;;2.53;;
71125;SDS011;58785;55.566;38.058;2022-12-20T14:53:46;7.00;;;1.83;;
71125;SDS011;58785;55.566;38.058;2022-12-20T14:56:18;9.88;;;2.55;;
71125;SDS011;58785;55.566;38.058;2022-12-20T14:58:47;8.35;;;1.98;;
71125;SDS011;58785;55.566;38.058;2022-12-20T15:01:27;8.65;;;2.40;;
71125;SDS011;58785;55.566;38.058;2022-12-20T15:03:59;8.30;;;2.10;;
71125;SDS011;58785;55.566;38.058;2022-12-20T15:06:42;7.25;;;2.55;;
71125;SDS011;58785;55.566;38.058;2022-12-20T15:09:08;9.60;;;2.60;;
71125;SDS011;58785;55.566;38.058;2022-12-20T15:11:35;6.57;;;2.03;;
71125;SDS011;58785;55.566;38.058;2022-12-20T15:14:05;9.93;;;2.78;;
71125;SDS011;58785;55.566;38.058;2022-12-20T15:16:46;9.63;;;2.20;;
71125;SDS011;58785;55.566;38.058;2022-12-20T15:19:13;8.63;;;2.30;;
71125;SDS011;58785;55.566;38.058;2022-12-20T15:21:40;9.98;;;2.30;;
71125;SDS011;58785;55.566;38.058;2022-12-20T15:24:14;9.55;;;2.80;;
71125;SDS011;58785;55.566;38.058;2022-12-20T15:26:44;7.32;;;2.17;;
71125;SDS011;58785;55.566;38.058;2022-12-20T15:29:20;8.13;;;1.93;;
71125;SDS011;58785;55.566;38.058;2022-12-20T15:31:48;6.65;;;2.13;;
71125;SDS011;58785;55.566;38.058;2022-12-20T15:34:34;11.98;;;2.97;;
71125;SDS011;58785;55.566;38.058;2022-12-20T15:37:02;8.73;;;1.60;;
71125;SDS011;58785;55.566;38.058;2022-12-20T15:39:29;6.35;;;2.05;;
71125;SDS011;58785;55.566;38.058;2022-12-20T15:41:55;6.23;;;2.13;;
71125;SDS011;58785;55.566;38.058;2022-12-20T15:44:25;12.27;;;2.67;;
71125;SDS011;58785;55.566;38.058;2022-12-20T15:46:52;9.60;;;2.40;;
71125;SDS011;58785;55.566;38.058;2022-12-20T15:49:23;9.60;;;2.85;;
71125;SDS011;58785;55.566;38.058;2022-12-20T15:51:52;9.70;;;2.83;;
71125;SDS011;58785;55.566;38.058;2022-12-20T15:54:26;7.33;;;2.77;;
71125;SDS011;58785;55.566;38.058;2022-12-20T15:56:54;8.13;;;2.38;;
71125;SDS011;58785;55.566;38.058;2022-12-20T15:59:21;7.13;;;2.10;;
71125;SDS011;58785;55.566;38.058;2022-12-20T16:01:47;8.18;;;2.42;;
71125;SDS011;58785;55.566;38.058;2022-12-20T16:04:13;17.23;;;2.33;;
71125;SDS011;58785;55.566;38.058;2022-12-20T16:06:42;7.63;;;2.22;;
71125;SDS011;58785;55.566;38.058;2022-12-20T16:09:09;9.93;;;3.17;;
71125;SDS011;58785;55.566;38.058;2022-12-20T16:11:34;8.30;;;2.40;;
71125;SDS011;58785;55.566;38.058;2022-12-20T16:14:01;10.20;;;2.90;;
71125;SDS011;58785;55.566;38.058;2022-12-20T16:20:08;8.60;;;2.70;;
71125;SDS011;58785;55.566;38.058;2022-12-20T16:22:34;7.78;;;2.65;;
71125;SDS011;58785;55.566;38.058;2022-12-20T16:24:59;7.37;;;2.90;;
71125;SDS011;58785;55.566;38.058;2022-12-20T16:31:10;10.52;;;2.60;;
71125;SDS011;58785;55.566;38.058;2022-12-20T16:33:42;11.13;;;1.90;;
71125;SDS011;58785;55.566;38.058;2022-12-20T16:36:09;8.07;;;2.53;;
71125;SDS011;58785;55.566;38.058;2022-12-20T16:38:36;10.65;;;2.33;;
71125;SDS011;58785;55.566;38.058;2022-12-20T16:41:17;9.38;;;2.45;;
71125;SDS011;58785;55.566;38.058;2022-12-20T16:43:47;8.60;;;2.27;;
71125;SDS011;58785;55.566;38.058;2022-12-20T16:46:14;9.00;;;2.72;;
71125;SDS011;58785;55.566;38.058;2022-12-20T16:48:42;8.05;;;2.15;;
71125;SDS011;58785;55.566;38.058;2022-12-20T16:53:52;8.40;;;2.67;;
71125;SDS011;58785;55.566;38.058;2022-12-20T16:56:22;7.80;;;2.87;;
71125;SDS011;58785;55.566;38.058;2022-12-20T16:58:47;14.27;;;2.63;;
71125;SDS011;58785;55.566;38.058;2022-12-20T17:01:22;7.85;;;2.50;;
71125;SDS011;58785;55.566;38.058;2022-12-20T17:03:52;8.32;;;2.47;;